sensor_id;sensor_type;location;lat;lon;timestamp;pressure;altitude;pressure_sealevel;temperature;humidity
78170;BME280;67412;49.892;14.490;2023-03-24T00:01:15;96556.66;;;11.44;67.85
78170;BME280;67412;49.892;14.490;2023-03-24T00:03:40;96556.81;;;11.39;68.49
78170;BME280;67412;49.892;14.490;2023-03-24T00:06:06;96556.97;;;11.33;68.67
78170;BME280;67412;49.892;14.490;2023-03-24T00:08:35;96553.72;;;11.28;68.75
78170;BME280;67412;49.892;14.490;2023-03-24T00:11:03;96558.13;;;11.23;68.66
78170;BME280;67412;49.892;14.490;2023-03-24T00:13:30;96556.44;;;11.22;68.61
78170;BME280;67412;49.892;14.490;2023-03-24T00:15:57;96554.97;;;11.13;68.80
78170;BME280;67412;49.892;14.490;2023-03-24T00:18:23;96544.03;;;11.07;68.93
78170;BME280;67412;49.892;14.490;2023-03-24T00:20:53;96549.94;;;11.10;68.88
78170;BME280;67412;49.892;14.490;2023-03-24T00:23:28;96551.84;;;11.04;69.01
78170;BME280;67412;49.892;14.490;2023-03-24T00:26:08;96545.28;;;10.94;69.98
78170;BME280;67412;49.892;14.490;2023-03-24T00:28:37;96549.28;;;11.02;69.26
78170;BME280;67412;49.892;14.490;2023-03-24T00:31:04;96535.63;;;11.02;69.14
78170;BME280;67412;49.892;14.490;2023-03-24T00:33:31;96538.00;;;11.08;68.92
78170;BME280;67412;49.892;14.490;2023-03-24T00:36:00;96535.34;;;11.11;68.87
78170;BME280;67412;49.892;14.490;2023-03-24T00:38:26;96535.44;;;11.08;69.02
78170;BME280;67412;49.892;14.490;2023-03-24T00:40:52;96527.69;;;11.09;69.01
78170;BME280;67412;49.892;14.490;2023-03-24T00:43:18;96530.28;;;11.09;68.91
78170;BME280;67412;49.892;14.490;2023-03-24T00:45:44;96528.44;;;11.13;68.98
78170;BME280;67412;49.892;14.490;2023-03-24T00:48:17;96527.53;;;11.14;68.80
78170;BME280;67412;49.892;14.490;2023-03-24T00:50:45;96514.63;;;11.17;68.74
78170;BME280;67412;49.892;14.490;2023-03-24T00:53:11;96512.97;;;11.14;68.75
78170;BME280;67412;49.892;14.490;2023-03-24T00:55:36;96519.84;;;11.14;69.30
78170;BME280;67412;49.892;14.490;2023-03-24T00:58:04;96517.31;;;11.12;69.21
78170;BME280;67412;49.892;14.490;2023-03-24T01:00:30;96510.59;;;11.08;69.15
78170;BME280;67412;49.892;14.490;2023-03-24T01:02:57;96502.91;;;11.07;68.96
78170;BME280;67412;49.892;14.490;2023-03-24T01:05:25;96503.53;;;11.15;68.67
78170;BME280;67412;49.892;14.490;2023-03-24T01:07:55;96501.06;;;11.12;69.03
78170;BME280;67412;49.892;14.490;2023-03-24T01:10:22;96502.78;;;11.11;68.88
78170;BME280;67412;49.892;14.490;2023-03-24T01:12:52;96501.94;;;11.11;68.93
78170;BME280;67412;49.892;14.490;2023-03-24T01:15:20;96494.13;;;11.14;69.22
78170;BME280;67412;49.892;14.490;2023-03-24T01:17:47;96500.84;;;11.20;68.77
78170;BME280;67412;49.892;14.490;2023-03-24T01:20:13;96501.47;;;11.26;68.87
78170;BME280;67412;49.892;14.490;2023-03-24T01:22:41;96501.59;;;11.22;68.93
78170;BME280;67412;49.892;14.490;2023-03-24T01:25:29;96493.22;;;11.17;68.87
78170;BME280;67412;49.892;14.490;2023-03-24T01:27:55;96495.94;;;11.10;68.99
78170;BME280;67412;49.892;14.490;2023-03-24T01:30:25;96495.59;;;11.23;68.60
78170;BME280;67412;49.892;14.490;2023-03-24T01:32:51;96493.34;;;11.40;67.88
78170;BME280;67412;49.892;14.490;2023-03-24T01:35:17;96493.28;;;11.43;67.94
78170;BME280;67412;49.892;14.490;2023-03-24T01:37:43;96496.81;;;11.39;68.15
78170;BME280;67412;49.892;14.490;2023-03-24T01:40:11;96491.59;;;11.42;68.34
78170;BME280;67412;49.892;14.490;2023-03-24T01:42:40;96483.13;;;11.38;68.20
78170;BME280;67412;49.892;14.490;2023-03-24T01:48:18;96471.13;;;11.37;68.42
78170;BME280;67412;49.892;14.490;2023-03-24T01:50:55;96473.38;;;11.48;68.25
78170;BME280;67412;49.892;14.490;2023-03-24T01:53:22;96465.66;;;11.48;68.58
78170;BME280;67412;49.892;14.490;2023-03-24T01:55:49;96459.88;;;11.41;68.39
78170;BME280;67412;49.892;14.490;2023-03-24T01:58:16;96460.00;;;11.37;68.71
78170;BME280;67412;49.892;14.490;2023-03-24T02:00:41;96457.56;;;11.32;68.55
78170;BME280;67412;49.892;14.490;2023-03-24T02:03:16;96455.91;;;11.31;69.19
78170;BME280;67412;49.892;14.490;2023-03-24T02:05:44;96452.97;;;11.43;68.59
78170;BME280;67412;49.892;14.490;2023-03-24T02:08:26;96454.63;;;11.44;68.52
78170;BME280;67412;49.892;14.490;2023-03-24T02:10:54;96450.16;;;11.51;68.43
78170;BME280;67412;49.892;14.490;2023-03-24T02:13:20;96443.44;;;11.47;68.75
78170;BME280;67412;49.892;14.490;2023-03-24T02:28:03;96441.22;;;11.35;69.41
78170;BME280;67412;49.892;14.490;2023-03-24T02:40:44;96431.66;;;11.12;70.10
78170;BME280;67412;49.892;14.490;2023-03-24T02:51:09;96422.31;;;11.09;70.89
78170;BME280;67412;49.892;14.490;2023-03-24T02:59:05;96424.22;;;11.03;71.12
78170;BME280;67412;49.892;14.490;2023-03-24T03:01:40;96431.28;;;10.96;71.55
78170;BME280;67412;49.892;14.490;2023-03-24T03:04:11;96429.66;;;10.94;71.57
78170;BME280;67412;49.892;14.490;2023-03-24T03:06:39;96433.19;;;10.90;71.33
78170;BME280;67412;49.892;14.490;2023-03-24T03:09:10;96433.44;;;10.81;71.88
78170;BME280;67412;49.892;14.490;2023-03-24T03:11:38;96425.75;;;10.81;72.11
78170;BME280;67412;49.892;14.490;2023-03-24T03:14:11;96427.53;;;10.79;71.91
78170;BME280;67412;49.892;14.490;2023-03-24T03:19:22;96427.63;;;10.76;71.66
78170;BME280;67412;49.892;14.490;2023-03-24T03:21:49;96427.31;;;10.57;71.64
78170;BME280;67412;49.892;14.490;2023-03-24T03:24:26;96428.31;;;10.51;71.54
78170;BME280;67412;49.892;14.490;2023-03-24T03:26:59;96421.75;;;10.41;72.10
78170;BME280;67412;49.892;14.490;2023-03-24T03:29:28;96425.88;;;10.47;72.39
78170;BME280;67412;49.892;14.490;2023-03-24T03:32:01;96419.09;;;10.44;72.67
78170;BME280;67412;49.892;14.490;2023-03-24T03:34:52;96413.09;;;10.45;72.92
78170;BME280;67412;49.892;14.490;2023-03-24T03:39:55;96406.59;;;10.61;72.95
78170;BME280;67412;49.892;14.490;2023-03-24T03:42:22;96401.03;;;10.47;73.05
78170;BME280;67412;49.892;14.490;2023-03-24T03:44:48;96409.50;;;10.51;73.53
78170;BME280;67412;49.892;14.490;2023-03-24T03:47:13;96411.84;;;10.58;73.49
78170;BME280;67412;49.892;14.490;2023-03-24T03:49:40;96414.28;;;10.63;72.90
78170;BME280;67412;49.892;14.490;2023-03-24T03:52:05;96409.47;;;10.52;72.65
78170;BME280;67412;49.892;14.490;2023-03-24T03:54:31;96418.97;;;10.49;73.55
78170;BME280;67412;49.892;14.490;2023-03-24T03:56:58;96415.44;;;10.53;73.41
78170;BME280;67412;49.892;14.490;2023-03-24T04:01:53;96419.19;;;10.71;73.12
78170;BME280;67412;49.892;14.490;2023-03-24T04:07:21;96413.94;;;10.75;73.33
78170;BME280;67412;49.892;14.490;2023-03-24T04:26:30;96402.38;;;10.60;74.27
78170;BME280;67412;49.892;14.490;2023-03-24T04:31:37;96414.50;;;10.55;74.37
78170;BME280;67412;49.892;14.490;2023-03-24T04:34:17;96406.00;;;10.53;74.23
78170;BME280;67412;49.892;14.490;2023-03-24T04:36:50;96404.22;;;10.55;74.13
78170;BME280;67412;49.892;14.490;2023-03-24T04:39:21;96399.94;;;10.56;74.09
78170;BME280;67412;49.892;14.490;2023-03-24T04:41:53;96399.94;;;10.56;73.99
78170;BME280;67412;49.892;14.490;2023-03-24T04:44:21;96401.66;;;10.55;73.99
78170;BME280;67412;49.892;14.490;2023-03-24T04:46:49;96402.44;;;10.57;74.00
78170;BME280;67412;49.892;14.490;2023-03-24T04:49:14;96400.03;;;10.53;74.14
78170;BME280;67412;49.892;14.490;2023-03-24T04:51:40;96401.75;;;10.52;74.26
78170;BME280;67412;49.892;14.490;2023-03-24T04:54:06;96398.91;;;10.61;74.24
78170;BME280;67412;49.892;14.490;2023-03-24T04:56:44;96400.78;;;10.56;73.97
78170;BME280;67412;49.892;14.490;2023-03-24T04:59:12;96399.22;;;10.51;73.95
78170;BME280;67412;49.892;14.490;2023-03-24T05:01:38;96392.25;;;10.54;74.23
78170;BME280;67412;49.892;14.490;2023-03-24T05:04:04;96384.41;;;10.60;74.03
78170;BME280;67412;49.892;14.490;2023-03-24T05:06:30;96385.91;;;10.68;73.72
78170;BME280;67412;49.892;14.490;2023-03-24T05:08:56;96384.94;;;10.72;73.45
78170;BME280;67412;49.892;14.490;2023-03-24T05:11:24;96367.81;;;10.71;73.64
78170;BME280;67412;49.892;14.490;2023-03-24T05:13:49;96353.16;;;10.74;73.63
78170;BME280;67412;49.892;14.490;2023-03-24T05:16:15;96354.75;;;10.78;73.32
78170;BME280;67412;49.892;14.490;2023-03-24T05:18:41;96348.97;;;10.72;73.82
78170;BME280;67412;49.892;14.490;2023-03-24T05:21:06;96354.66;;;10.81;73.34
78170;BME280;67412;49.892;14.490;2023-03-24T05:23:32;96351.34;;;10.78;73.58
78170;BME280;67412;49.892;14.490;2023-03-24T05:25:57;96353.81;;;10.81;73.38
78170;BME280;67412;49.892;14.490;2023-03-24T05:28:22;96350.56;;;10.76;73.53
78170;BME280;67412;49.892;14.490;2023-03-24T05:30:48;96342.03;;;10.74;73.96
78170;BME280;67412;49.892;14.490;2023-03-24T05:33:13;96347.06;;;10.77;73.73
78170;BME280;67412;49.892;14.490;2023-03-24T05:35:38;96345.47;;;10.73;73.46
78170;BME280;67412;49.892;14.490;2023-03-24T05:38:04;96351.44;;;10.75;73.66
78170;BME280;67412;49.892;14.490;2023-03-24T05:40:29;96344.59;;;10.74;73.70
78170;BME280;67412;49.892;14.490;2023-03-24T05:42:55;96340.84;;;10.84;73.52
78170;BME280;67412;49.892;14.490;2023-03-24T05:45:20;96343.50;;;10.82;73.46
78170;BME280;67412;49.892;14.490;2023-03-24T05:47:46;96341.56;;;10.89;73.45
78170;BME280;67412;49.892;14.490;2023-03-24T05:50:12;96342.41;;;10.89;73.74
78170;BME280;67412;49.892;14.490;2023-03-24T05:52:37;96348.09;;;10.99;73.45
78170;BME280;67412;49.892;14.490;2023-03-24T05:55:03;96341.56;;;11.17;72.94
78170;BME280;67412;49.892;14.490;2023-03-24T05:57:28;96338.81;;;11.21;73.12
78170;BME280;67412;49.892;14.490;2023-03-24T05:59:55;96340.34;;;11.27;72.35
78170;BME280;67412;49.892;14.490;2023-03-24T06:02:21;96330.44;;;11.41;71.24
78170;BME280;67412;49.892;14.490;2023-03-24T06:04:46;96329.41;;;11.46;71.26
78170;BME280;67412;49.892;14.490;2023-03-24T06:07:13;96323.28;;;11.50;71.61
78170;BME280;67412;49.892;14.490;2023-03-24T06:09:39;96321.56;;;11.51;71.55
78170;BME280;67412;49.892;14.490;2023-03-24T06:12:07;96322.34;;;11.53;71.40
78170;BME280;67412;49.892;14.490;2023-03-24T06:14:33;96323.78;;;11.60;71.18
78170;BME280;67412;49.892;14.490;2023-03-24T06:16:58;96322.94;;;11.59;71.26
78170;BME280;67412;49.892;14.490;2023-03-24T06:19:25;96319.13;;;11.73;69.65
78170;BME280;67412;49.892;14.490;2023-03-24T06:21:52;96317.16;;;11.79;69.88
78170;BME280;67412;49.892;14.490;2023-03-24T06:24:17;96319.59;;;11.84;69.79
78170;BME280;67412;49.892;14.490;2023-03-24T06:26:45;96323.38;;;11.97;68.52
78170;BME280;67412;49.892;14.490;2023-03-24T06:29:15;96317.19;;;12.02;68.59
78170;BME280;67412;49.892;14.490;2023-03-24T06:31:44;96319.03;;;11.99;69.32
78170;BME280;67412;49.892;14.490;2023-03-24T06:34:10;96317.75;;;12.10;69.18
78170;BME280;67412;49.892;14.490;2023-03-24T06:36:36;96315.91;;;12.14;69.26
78170;BME280;67412;49.892;14.490;2023-03-24T06:39:02;96319.13;;;12.19;69.07
78170;BME280;67412;49.892;14.490;2023-03-24T06:41:28;96311.22;;;12.25;68.35
78170;BME280;67412;49.892;14.490;2023-03-24T06:43:53;96307.66;;;12.28;69.13
78170;BME280;67412;49.892;14.490;2023-03-24T06:46:18;96305.56;;;12.37;68.80
78170;BME280;67412;49.892;14.490;2023-03-24T06:48:44;96305.41;;;12.42;68.61
78170;BME280;67412;49.892;14.490;2023-03-24T06:51:10;96310.66;;;12.40;68.39
78170;BME280;67412;49.892;14.490;2023-03-24T06:53:35;96305.25;;;12.46;68.12
78170;BME280;67412;49.892;14.490;2023-03-24T06:56:01;96307.56;;;12.52;68.15
78170;BME280;67412;49.892;14.490;2023-03-24T06:58:27;96308.13;;;12.60;67.95
78170;BME280;67412;49.892;14.490;2023-03-24T07:00:52;96309.94;;;12.58;67.75
78170;BME280;67412;49.892;14.490;2023-03-24T07:03:19;96308.94;;;12.63;67.83
78170;BME280;67412;49.892;14.490;2023-03-24T07:05:46;96319.06;;;12.67;67.79
78170;BME280;67412;49.892;14.490;2023-03-24T07:08:11;96314.25;;;12.80;67.16
78170;BME280;67412;49.892;14.490;2023-03-24T07:10:38;96319.13;;;12.87;67.24
78170;BME280;67412;49.892;14.490;2023-03-24T07:13:04;96340.94;;;13.00;67.05
78170;BME280;67412;49.892;14.490;2023-03-24T07:15:30;96321.81;;;13.06;66.65
78170;BME280;67412;49.892;14.490;2023-03-24T07:17:56;96327.66;;;13.11;66.12
78170;BME280;67412;49.892;14.490;2023-03-24T07:20:21;96325.53;;;13.21;64.12
78170;BME280;67412;49.892;14.490;2023-03-24T07:22:46;96325.56;;;13.41;63.90
78170;BME280;67412;49.892;14.490;2023-03-24T07:25:12;96321.00;;;13.47;63.95
78170;BME280;67412;49.892;14.490;2023-03-24T07:27:39;96324.94;;;13.56;63.86
78170;BME280;67412;49.892;14.490;2023-03-24T07:30:05;96315.94;;;13.65;63.34
78170;BME280;67412;49.892;14.490;2023-03-24T07:32:31;96314.81;;;13.72;63.48
78170;BME280;67412;49.892;14.490;2023-03-24T07:34:59;96307.63;;;13.78;63.32
78170;BME280;67412;49.892;14.490;2023-03-24T07:37:25;96311.56;;;13.87;62.20
78170;BME280;67412;49.892;14.490;2023-03-24T07:39:51;96314.63;;;13.95;62.22
78170;BME280;67412;49.892;14.490;2023-03-24T07:42:16;96319.31;;;13.87;61.35
78170;BME280;67412;49.892;14.490;2023-03-24T07:44:42;96309.69;;;13.90;62.26
78170;BME280;67412;49.892;14.490;2023-03-24T07:47:07;96318.25;;;13.91;61.38
78170;BME280;67412;49.892;14.490;2023-03-24T07:49:33;96304.19;;;13.98;61.75
78170;BME280;67412;49.892;14.490;2023-03-24T07:51:58;96301.41;;;14.02;61.54
78170;BME280;67412;49.892;14.490;2023-03-24T07:54:24;96307.25;;;14.06;60.75
78170;BME280;67412;49.892;14.490;2023-03-24T07:56:49;96302.00;;;14.09;61.43
78170;BME280;67412;49.892;14.490;2023-03-24T07:59:15;96311.34;;;14.12;60.47
78170;BME280;67412;49.892;14.490;2023-03-24T08:01:41;96311.97;;;14.17;60.48
78170;BME280;67412;49.892;14.490;2023-03-24T08:04:10;96310.63;;;14.08;60.68
78170;BME280;67412;49.892;14.490;2023-03-24T08:06:36;96305.13;;;14.16;60.30
78170;BME280;67412;49.892;14.490;2023-03-24T08:09:01;96305.28;;;14.13;60.79
78170;BME280;67412;49.892;14.490;2023-03-24T08:11:27;96301.00;;;14.12;61.37
78170;BME280;67412;49.892;14.490;2023-03-24T08:13:52;96304.47;;;14.11;61.38
78170;BME280;67412;49.892;14.490;2023-03-24T08:16:17;96307.00;;;14.12;60.83
78170;BME280;67412;49.892;14.490;2023-03-24T08:18:43;96310.34;;;14.14;60.98
78170;BME280;67412;49.892;14.490;2023-03-24T08:21:08;96302.81;;;14.10;61.03
78170;BME280;67412;49.892;14.490;2023-03-24T08:23:33;96305.88;;;14.18;61.06
78170;BME280;67412;49.892;14.490;2023-03-24T08:26:01;96309.75;;;14.28;59.55
78170;BME280;67412;49.892;14.490;2023-03-24T08:28:26;96306.00;;;14.35;59.55
78170;BME280;67412;49.892;14.490;2023-03-24T08:30:52;96298.25;;;14.54;60.04
78170;BME280;67412;49.892;14.490;2023-03-24T08:33:17;96293.94;;;14.54;60.15
78170;BME280;67412;49.892;14.490;2023-03-24T08:35:43;96285.31;;;14.72;59.29
78170;BME280;67412;49.892;14.490;2023-03-24T08:38:10;96280.88;;;14.93;59.54
78170;BME280;67412;49.892;14.490;2023-03-24T08:40:38;96284.09;;;15.15;58.26
78170;BME280;67412;49.892;14.490;2023-03-24T08:43:05;96287.59;;;15.31;57.48
78170;BME280;67412;49.892;14.490;2023-03-24T08:45:34;96290.81;;;15.36;58.36
78170;BME280;67412;49.892;14.490;2023-03-24T08:48:02;96288.59;;;15.46;57.46
78170;BME280;67412;49.892;14.490;2023-03-24T08:50:32;96282.75;;;15.60;55.55
78170;BME280;67412;49.892;14.490;2023-03-24T08:52:58;96281.78;;;15.62;56.60
78170;BME280;67412;49.892;14.490;2023-03-24T08:55:24;96286.00;;;15.80;56.00
78170;BME280;67412;49.892;14.490;2023-03-24T08:57:50;96284.84;;;15.86;56.38
78170;BME280;67412;49.892;14.490;2023-03-24T09:00:17;96283.47;;;15.96;55.17
78170;BME280;67412;49.892;14.490;2023-03-24T09:02:48;96272.22;;;16.13;55.21
78170;BME280;67412;49.892;14.490;2023-03-24T09:05:14;96271.22;;;16.31;55.32
78170;BME280;67412;49.892;14.490;2023-03-24T09:07:42;96273.41;;;16.38;53.12
78170;BME280;67412;49.892;14.490;2023-03-24T09:10:09;96271.66;;;16.39;54.41
78170;BME280;67412;49.892;14.490;2023-03-24T09:12:36;96273.16;;;16.43;53.06
78170;BME280;67412;49.892;14.490;2023-03-24T09:15:03;96269.59;;;16.46;54.77
78170;BME280;67412;49.892;14.490;2023-03-24T09:17:29;96264.13;;;16.50;53.58
78170;BME280;67412;49.892;14.490;2023-03-24T09:19:54;96244.00;;;16.55;53.65
78170;BME280;67412;49.892;14.490;2023-03-24T09:22:20;96246.19;;;16.63;53.53
78170;BME280;67412;49.892;14.490;2023-03-24T09:24:45;96239.00;;;16.68;52.97
78170;BME280;67412;49.892;14.490;2023-03-24T09:27:13;96234.75;;;16.67;52.85
78170;BME280;67412;49.892;14.490;2023-03-24T09:29:39;96228.63;;;16.68;51.40
78170;BME280;67412;49.892;14.490;2023-03-24T09:32:04;96227.78;;;16.67;52.14
78170;BME280;67412;49.892;14.490;2023-03-24T09:34:30;96228.09;;;16.77;53.08
78170;BME280;67412;49.892;14.490;2023-03-24T09:36:56;96221.72;;;16.98;50.76
78170;BME280;67412;49.892;14.490;2023-03-24T09:39:22;96220.50;;;17.19;52.52
78170;BME280;67412;49.892;14.490;2023-03-24T09:41:47;96220.13;;;17.25;50.24
78170;BME280;67412;49.892;14.490;2023-03-24T09:44:39;96226.91;;;17.58;50.94
78170;BME280;67412;49.892;14.490;2023-03-24T09:47:09;96217.72;;;17.66;50.32
78170;BME280;67412;49.892;14.490;2023-03-24T09:49:39;96224.72;;;17.50;50.74
78170;BME280;67412;49.892;14.490;2023-03-24T09:52:09;96225.91;;;17.45;50.60
78170;BME280;67412;49.892;14.490;2023-03-24T09:54:53;96232.69;;;17.17;50.30
78170;BME280;67412;49.892;14.490;2023-03-24T09:57:40;96216.97;;;17.20;51.06
78170;BME280;67412;49.892;14.490;2023-03-24T10:00:16;96215.75;;;17.12;50.81
78170;BME280;67412;49.892;14.490;2023-03-24T10:02:43;96217.84;;;17.05;50.71
78170;BME280;67412;49.892;14.490;2023-03-24T10:05:14;96223.38;;;16.99;51.17
78170;BME280;67412;49.892;14.490;2023-03-24T10:08:05;96218.53;;;16.93;52.93
78170;BME280;67412;49.892;14.490;2023-03-24T10:10:48;96223.56;;;16.80;51.99
78170;BME280;67412;49.892;14.490;2023-03-24T10:13:21;96227.13;;;16.79;51.28
78170;BME280;67412;49.892;14.490;2023-03-24T10:15:55;96237.75;;;16.75;52.55
78170;BME280;67412;49.892;14.490;2023-03-24T10:18:31;96242.41;;;16.84;51.92
78170;BME280;67412;49.892;14.490;2023-03-24T10:21:04;96242.91;;;16.90;51.73
78170;BME280;67412;49.892;14.490;2023-03-24T10:29:16;96237.94;;;16.72;52.58
78170;BME280;67412;49.892;14.490;2023-03-24T10:31:51;96262.22;;;16.54;53.02
78170;BME280;67412;49.892;14.490;2023-03-24T10:34:17;96258.47;;;16.43;52.81
78170;BME280;67412;49.892;14.490;2023-03-24T10:36:43;96255.84;;;16.28;53.37
78170;BME280;67412;49.892;14.490;2023-03-24T10:39:14;96254.06;;;16.13;53.78
78170;BME280;67412;49.892;14.490;2023-03-24T10:41:41;96253.50;;;16.08;53.96
78170;BME280;67412;49.892;14.490;2023-03-24T10:44:07;96270.03;;;16.05;54.43
78170;BME280;67412;49.892;14.490;2023-03-24T10:46:43;96258.16;;;16.01;55.24
78170;BME280;67412;49.892;14.490;2023-03-24T10:49:14;96263.50;;;15.98;55.17
78170;BME280;67412;49.892;14.490;2023-03-24T10:51:48;96260.56;;;15.88;55.67
78170;BME280;67412;49.892;14.490;2023-03-24T10:54:22;96264.91;;;15.88;55.69
78170;BME280;67412;49.892;14.490;2023-03-24T10:56:59;96265.81;;;15.87;55.38
78170;BME280;67412;49.892;14.490;2023-03-24T10:59:29;96274.69;;;15.99;55.29
78170;BME280;67412;49.892;14.490;2023-03-24T11:04:36;96264.72;;;16.24;54.81
78170;BME280;67412;49.892;14.490;2023-03-24T11:07:05;96266.59;;;16.37;54.63
78170;BME280;67412;49.892;14.490;2023-03-24T11:09:43;96260.44;;;16.38;53.54
78170;BME280;67412;49.892;14.490;2023-03-24T11:12:27;96263.31;;;16.50;53.00
78170;BME280;67412;49.892;14.490;2023-03-24T11:15:01;96253.06;;;16.64;52.85
78170;BME280;67412;49.892;14.490;2023-03-24T11:17:27;96255.66;;;16.79;53.77
78170;BME280;67412;49.892;14.490;2023-03-24T11:19:54;96256.13;;;16.86;52.54
78170;BME280;67412;49.892;14.490;2023-03-24T11:22:20;96261.75;;;16.94;52.57
78170;BME280;67412;49.892;14.490;2023-03-24T11:24:48;96271.53;;;16.73;52.83
78170;BME280;67412;49.892;14.490;2023-03-24T11:27:15;96281.59;;;16.64;53.28
78170;BME280;67412;49.892;14.490;2023-03-24T11:29:42;96275.94;;;16.56;52.04
78170;BME280;67412;49.892;14.490;2023-03-24T11:32:12;96273.00;;;16.30;53.74
78170;BME280;67412;49.892;14.490;2023-03-24T11:34:43;96293.22;;;16.08;53.59
78170;BME280;67412;49.892;14.490;2023-03-24T11:37:16;96265.22;;;15.82;54.43
78170;BME280;67412;49.892;14.490;2023-03-24T11:39:42;96261.19;;;15.76;55.20
78170;BME280;67412;49.892;14.490;2023-03-24T11:42:13;96255.56;;;15.68;56.08
78170;BME280;67412;49.892;14.490;2023-03-24T11:44:52;96254.81;;;15.66;56.48
78170;BME280;67412;49.892;14.490;2023-03-24T11:49:52;96252.06;;;15.69;56.58
78170;BME280;67412;49.892;14.490;2023-03-24T11:52:24;96249.25;;;15.74;56.69
78170;BME280;67412;49.892;14.490;2023-03-24T11:54:51;96260.13;;;15.80;56.43
78170;BME280;67412;49.892;14.490;2023-03-24T12:00:19;96256.84;;;15.60;56.47
78170;BME280;67412;49.892;14.490;2023-03-24T12:05:29;96253.91;;;15.50;57.22
78170;BME280;67412;49.892;14.490;2023-03-24T12:13:35;96239.72;;;15.74;57.25
78170;BME280;67412;49.892;14.490;2023-03-24T12:21:48;96234.84;;;15.68;56.76
78170;BME280;67412;49.892;14.490;2023-03-24T12:26:52;96227.06;;;15.68;56.36
78170;BME280;67412;49.892;14.490;2023-03-24T12:32:18;96237.00;;;15.60;56.85
78170;BME280;67412;49.892;14.490;2023-03-24T12:44:06;96229.47;;;15.56;57.79
78170;BME280;67412;49.892;14.490;2023-03-24T12:51:48;96230.22;;;15.40;58.15
78170;BME280;67412;49.892;14.490;2023-03-24T12:54:42;96230.28;;;15.39;58.45
78170;BME280;67412;49.892;14.490;2023-03-24T12:57:16;96235.00;;;15.31;59.77
78170;BME280;67412;49.892;14.490;2023-03-24T13:04:53;96238.44;;;14.97;60.87
78170;BME280;67412;49.892;14.490;2023-03-24T13:07:22;96257.28;;;14.82;60.73
78170;BME280;67412;49.892;14.490;2023-03-24T13:15:24;96273.50;;;14.67;61.48
78170;BME280;67412;49.892;14.490;2023-03-24T13:20:55;96252.47;;;14.74;61.18
78170;BME280;67412;49.892;14.490;2023-03-24T13:23:50;96254.16;;;14.75;62.07
78170;BME280;67412;49.892;14.490;2023-03-24T13:37:02;96234.84;;;14.82;57.97
78170;BME280;67412;49.892;14.490;2023-03-24T13:39:30;96227.06;;;14.82;58.91
78170;BME280;67412;49.892;14.490;2023-03-24T13:41:59;96236.31;;;14.88;58.86
78170;BME280;67412;49.892;14.490;2023-03-24T13:44:36;96230.19;;;14.89;58.26
78170;BME280;67412;49.892;14.490;2023-03-24T13:47:11;96226.97;;;15.03;58.75
78170;BME280;67412;49.892;14.490;2023-03-24T13:49:37;96230.22;;;15.06;57.72
78170;BME280;67412;49.892;14.490;2023-03-24T13:52:05;96216.81;;;15.15;58.26
78170;BME280;67412;49.892;14.490;2023-03-24T13:54:45;96220.03;;;15.20;58.43
78170;BME280;67412;49.892;14.490;2023-03-24T13:57:17;96220.25;;;15.33;57.65
78170;BME280;67412;49.892;14.490;2023-03-24T14:06:14;96216.53;;;15.04;56.78
78170;BME280;67412;49.892;14.490;2023-03-24T14:14:24;96215.38;;;15.27;56.84
78170;BME280;67412;49.892;14.490;2023-03-24T14:19:30;96194.75;;;15.42;57.13
78170;BME280;67412;49.892;14.490;2023-03-24T14:22:03;96194.00;;;15.40;56.00
78170;BME280;67412;49.892;14.490;2023-03-24T14:24:33;96191.53;;;15.37;56.28
78170;BME280;67412;49.892;14.490;2023-03-24T14:26:59;96182.97;;;15.37;55.59
78170;BME280;67412;49.892;14.490;2023-03-24T14:29:52;96181.81;;;15.42;55.78
78170;BME280;67412;49.892;14.490;2023-03-24T14:32:19;96191.81;;;15.48;55.79
78170;BME280;67412;49.892;14.490;2023-03-24T14:34:57;96195.22;;;15.51;55.85
78170;BME280;67412;49.892;14.490;2023-03-24T14:37:25;96190.72;;;15.37;56.04
78170;BME280;67412;49.892;14.490;2023-03-24T14:39:52;96195.91;;;15.37;56.05
78170;BME280;67412;49.892;14.490;2023-03-24T14:44:58;96175.59;;;15.29;56.63
78170;BME280;67412;49.892;14.490;2023-03-24T14:47:26;96181.44;;;15.33;55.98
78170;BME280;67412;49.892;14.490;2023-03-24T14:49:55;96178.00;;;15.32;56.85
78170;BME280;67412;49.892;14.490;2023-03-24T14:52:27;96191.72;;;15.17;56.18
78170;BME280;67412;49.892;14.490;2023-03-24T14:55:02;96182.84;;;15.06;56.71
78170;BME280;67412;49.892;14.490;2023-03-24T14:57:30;96174.22;;;15.05;57.16
78170;BME280;67412;49.892;14.490;2023-03-24T15:02:35;96174.25;;;14.88;58.24
78170;BME280;67412;49.892;14.490;2023-03-24T15:07:43;96176.81;;;14.71;59.23
78170;BME280;67412;49.892;14.490;2023-03-24T15:10:16;96184.50;;;14.72;59.14
78170;BME280;67412;49.892;14.490;2023-03-24T15:12:46;96192.84;;;14.77;58.97
78170;BME280;67412;49.892;14.490;2023-03-24T15:15:20;96182.66;;;14.74;59.16
78170;BME280;67412;49.892;14.490;2023-03-24T15:17:47;96185.03;;;14.79;59.32
78170;BME280;67412;49.892;14.490;2023-03-24T15:20:20;96185.56;;;14.85;59.25
78170;BME280;67412;49.892;14.490;2023-03-24T15:22:46;96174.69;;;14.96;58.85
78170;BME280;67412;49.892;14.490;2023-03-24T15:25:12;96162.38;;;15.18;57.80
78170;BME280;67412;49.892;14.490;2023-03-24T15:27:38;96152.88;;;15.34;58.05
78170;BME280;67412;49.892;14.490;2023-03-24T15:30:12;96154.25;;;15.59;57.60
78170;BME280;67412;49.892;14.490;2023-03-24T15:32:39;96152.19;;;15.81;56.48
78170;BME280;67412;49.892;14.490;2023-03-24T15:35:23;96154.53;;;16.64;54.60
78170;BME280;67412;49.892;14.490;2023-03-24T15:37:55;96150.84;;;16.68;54.15
78170;BME280;67412;49.892;14.490;2023-03-24T15:42:49;96141.81;;;16.12;55.22
78170;BME280;67412;49.892;14.490;2023-03-24T15:45:48;96144.06;;;15.87;56.94